sensor_id;sensor_type;location;lat;lon;timestamp;P1;durP1;ratioP1;P2;durP2;ratioP2
62582;SDS011;48641;51.676;5.808;2023-04-07T00:01:18;4.40;;;2.00;;
62582;SDS011;48641;51.676;5.808;2023-04-07T00:03:43;5.00;;;2.35;;
62582;SDS011;48641;51.676;5.808;2023-04-07T00:06:10;4.25;;;1.92;;
62582;SDS011;48641;51.676;5.808;2023-04-07T00:08:35;5.28;;;2.03;;
62582;SDS011;48641;51.676;5.808;2023-04-07T00:11:01;6.75;;;2.13;;
62582;SDS011;48641;51.676;5.808;2023-04-07T00:13:26;4.30;;;1.98;;
62582;SDS011;48641;51.676;5.808;2023-04-07T00:15:52;4.63;;;2.30;;
62582;SDS011;48641;51.676;5.808;2023-04-07T00:18:18;4.13;;;1.88;;
62582;SDS011;48641;51.676;5.808;2023-04-07T00:20:43;4.55;;;2.00;;
62582;SDS011;48641;51.676;5.808;2023-04-07T00:23:09;4.95;;;2.63;;
62582;SDS011;48641;51.676;5.808;2023-04-07T00:25:35;5.82;;;2.15;;
62582;SDS011;48641;51.676;5.808;2023-04-07T00:28:00;4.18;;;1.95;;
62582;SDS011;48641;51.676;5.808;2023-04-07T00:30:26;5.75;;;2.30;;
62582;SDS011;48641;51.676;5.808;2023-04-07T00:32:51;5.03;;;2.30;;
62582;SDS011;48641;51.676;5.808;2023-04-07T00:35:17;5.20;;;2.08;;
62582;SDS011;48641;51.676;5.808;2023-04-07T00:37:43;3.95;;;2.00;;
62582;SDS011;48641;51.676;5.808;2023-04-07T00:40:08;5.22;;;2.28;;
62582;SDS011;48641;51.676;5.808;2023-04-07T00:42:34;5.13;;;2.10;;
62582;SDS011;48641;51.676;5.808;2023-04-07T00:45:00;4.38;;;1.83;;
62582;SDS011;48641;51.676;5.808;2023-04-07T00:47:25;4.70;;;1.92;;
62582;SDS011;48641;51.676;5.808;2023-04-07T00:49:51;5.57;;;2.15;;
62582;SDS011;48641;51.676;5.808;2023-04-07T00:52:17;6.32;;;2.15;;
62582;SDS011;48641;51.676;5.808;2023-04-07T00:54:51;5.22;;;2.00;;
62582;SDS011;48641;51.676;5.808;2023-04-07T00:57:21;3.08;;;1.52;;
62582;SDS011;48641;51.676;5.808;2023-04-07T00:59:47;4.15;;;1.90;;
62582;SDS011;48641;51.676;5.808;2023-04-07T01:02:50;4.82;;;2.10;;
62582;SDS011;48641;51.676;5.808;2023-04-07T01:05:15;4.50;;;1.73;;
62582;SDS011;48641;51.676;5.808;2023-04-07T01:07:51;5.63;;;1.80;;
62582;SDS011;48641;51.676;5.808;2023-04-07T01:10:40;4.32;;;1.80;;
62582;SDS011;48641;51.676;5.808;2023-04-07T01:13:35;4.70;;;1.90;;
62582;SDS011;48641;51.676;5.808;2023-04-07T01:16:08;3.72;;;1.90;;
62582;SDS011;48641;51.676;5.808;2023-04-07T01:18:37;3.70;;;1.60;;
62582;SDS011;48641;51.676;5.808;2023-04-07T01:21:12;4.18;;;1.80;;
62582;SDS011;48641;51.676;5.808;2023-04-07T01:24:00;4.28;;;1.70;;
62582;SDS011;48641;51.676;5.808;2023-04-07T01:26:33;5.25;;;2.05;;
62582;SDS011;48641;51.676;5.808;2023-04-07T01:31:31;3.97;;;1.65;;
62582;SDS011;48641;51.676;5.808;2023-04-07T01:33:58;4.25;;;1.90;;
62582;SDS011;48641;51.676;5.808;2023-04-07T01:36:26;4.00;;;1.77;;
62582;SDS011;48641;51.676;5.808;2023-04-07T01:38:53;5.60;;;1.98;;
62582;SDS011;48641;51.676;5.808;2023-04-07T01:41:22;4.35;;;1.70;;
62582;SDS011;48641;51.676;5.808;2023-04-07T01:43:49;3.67;;;1.60;;
62582;SDS011;48641;51.676;5.808;2023-04-07T01:46:16;3.97;;;1.60;;
62582;SDS011;48641;51.676;5.808;2023-04-07T01:48:41;4.55;;;1.80;;
62582;SDS011;48641;51.676;5.808;2023-04-07T01:51:07;5.00;;;1.65;;
62582;SDS011;48641;51.676;5.808;2023-04-07T01:53:36;4.25;;;1.73;;
62582;SDS011;48641;51.676;5.808;2023-04-07T01:56:03;4.43;;;1.60;;
62582;SDS011;48641;51.676;5.808;2023-04-07T01:58:29;3.72;;;1.50;;
62582;SDS011;48641;51.676;5.808;2023-04-07T02:00:55;3.33;;;1.48;;
62582;SDS011;48641;51.676;5.808;2023-04-07T02:03:27;3.08;;;1.42;;
62582;SDS011;48641;51.676;5.808;2023-04-07T02:05:57;4.03;;;1.55;;
62582;SDS011;48641;51.676;5.808;2023-04-07T02:08:27;4.85;;;1.73;;
62582;SDS011;48641;51.676;5.808;2023-04-07T02:10:54;4.65;;;1.88;;
62582;SDS011;48641;51.676;5.808;2023-04-07T02:13:22;3.33;;;1.45;;
62582;SDS011;48641;51.676;5.808;2023-04-07T02:15:48;3.35;;;1.48;;
62582;SDS011;48641;51.676;5.808;2023-04-07T02:18:15;3.92;;;1.50;;
62582;SDS011;48641;51.676;5.808;2023-04-07T02:20:43;3.53;;;1.73;;
62582;SDS011;48641;51.676;5.808;2023-04-07T02:23:10;3.30;;;1.40;;
62582;SDS011;48641;51.676;5.808;2023-04-07T02:25:36;5.38;;;1.73;;
62582;SDS011;48641;51.676;5.808;2023-04-07T02:28:02;3.05;;;1.38;;
62582;SDS011;48641;51.676;5.808;2023-04-07T02:30:29;5.13;;;1.67;;
62582;SDS011;48641;51.676;5.808;2023-04-07T02:32:55;3.95;;;1.75;;
62582;SDS011;48641;51.676;5.808;2023-04-07T02:35:21;3.17;;;1.40;;
62582;SDS011;48641;51.676;5.808;2023-04-07T02:37:47;4.57;;;1.63;;
62582;SDS011;48641;51.676;5.808;2023-04-07T02:40:13;4.18;;;1.50;;
62582;SDS011;48641;51.676;5.808;2023-04-07T02:42:39;3.63;;;1.38;;
62582;SDS011;48641;51.676;5.808;2023-04-07T02:45:06;3.63;;;1.55;;
62582;SDS011;48641;51.676;5.808;2023-04-07T02:47:33;3.75;;;1.45;;
62582;SDS011;48641;51.676;5.808;2023-04-07T02:49:59;4.88;;;1.60;;
62582;SDS011;48641;51.676;5.808;2023-04-07T02:52:25;4.10;;;1.60;;
62582;SDS011;48641;51.676;5.808;2023-04-07T02:54:53;3.78;;;1.58;;
62582;SDS011;48641;51.676;5.808;2023-04-07T02:57:19;3.63;;;1.50;;
62582;SDS011;48641;51.676;5.808;2023-04-07T02:59:45;3.38;;;1.30;;
62582;SDS011;48641;51.676;5.808;2023-04-07T03:02:10;2.60;;;1.25;;
62582;SDS011;48641;51.676;5.808;2023-04-07T03:04:36;3.40;;;1.23;;
62582;SDS011;48641;51.676;5.808;2023-04-07T03:07:01;2.95;;;1.50;;
62582;SDS011;48641;51.676;5.808;2023-04-07T03:09:27;3.75;;;1.52;;
62582;SDS011;48641;51.676;5.808;2023-04-07T03:11:53;3.38;;;1.30;;
62582;SDS011;48641;51.676;5.808;2023-04-07T03:14:18;3.35;;;1.30;;
62582;SDS011;48641;51.676;5.808;2023-04-07T03:16:44;2.63;;;1.27;;
62582;SDS011;48641;51.676;5.808;2023-04-07T03:19:10;4.13;;;1.50;;
62582;SDS011;48641;51.676;5.808;2023-04-07T03:21:36;3.60;;;1.50;;
62582;SDS011;48641;51.676;5.808;2023-04-07T03:24:02;4.10;;;1.45;;
62582;SDS011;48641;51.676;5.808;2023-04-07T03:26:28;2.17;;;1.25;;
62582;SDS011;48641;51.676;5.808;2023-04-07T03:28:54;3.03;;;1.35;;
62582;SDS011;48641;51.676;5.808;2023-04-07T03:31:20;4.80;;;1.48;;
62582;SDS011;48641;51.676;5.808;2023-04-07T03:33:47;2.63;;;1.30;;
62582;SDS011;48641;51.676;5.808;2023-04-07T03:36:13;3.85;;;1.20;;
62582;SDS011;48641;51.676;5.808;2023-04-07T03:38:39;3.50;;;1.40;;
62582;SDS011;48641;51.676;5.808;2023-04-07T03:41:05;2.50;;;1.30;;
62582;SDS011;48641;51.676;5.808;2023-04-07T03:43:30;3.55;;;1.23;;
62582;SDS011;48641;51.676;5.808;2023-04-07T03:45:56;2.92;;;1.50;;
62582;SDS011;48641;51.676;5.808;2023-04-07T03:48:21;3.40;;;1.30;;
62582;SDS011;48641;51.676;5.808;2023-04-07T03:50:47;2.92;;;1.30;;
62582;SDS011;48641;51.676;5.808;2023-04-07T03:53:13;2.60;;;1.30;;
62582;SDS011;48641;51.676;5.808;2023-04-07T03:55:40;2.80;;;1.42;;
62582;SDS011;48641;51.676;5.808;2023-04-07T03:58:06;3.20;;;1.20;;
62582;SDS011;48641;51.676;5.808;2023-04-07T04:00:32;3.15;;;1.10;;
62582;SDS011;48641;51.676;5.808;2023-04-07T04:02:58;2.47;;;1.15;;
62582;SDS011;48641;51.676;5.808;2023-04-07T04:05:25;2.50;;;1.10;;
62582;SDS011;48641;51.676;5.808;2023-04-07T04:07:50;3.65;;;1.45;;
62582;SDS011;48641;51.676;5.808;2023-04-07T04:10:17;3.58;;;1.40;;
62582;SDS011;48641;51.676;5.808;2023-04-07T04:12:43;3.70;;;1.30;;
62582;SDS011;48641;51.676;5.808;2023-04-07T04:15:10;3.22;;;1.25;;
62582;SDS011;48641;51.676;5.808;2023-04-07T04:17:35;2.13;;;1.20;;
62582;SDS011;48641;51.676;5.808;2023-04-07T04:20:01;3.25;;;1.27;;
62582;SDS011;48641;51.676;5.808;2023-04-07T04:22:27;3.10;;;1.20;;
62582;SDS011;48641;51.676;5.808;2023-04-07T04:24:52;3.95;;;1.50;;
62582;SDS011;48641;51.676;5.808;2023-04-07T04:27:18;2.72;;;1.10;;
62582;SDS011;48641;51.676;5.808;2023-04-07T04:29:44;4.72;;;1.38;;
62582;SDS011;48641;51.676;5.808;2023-04-07T04:32:10;2.47;;;1.13;;
62582;SDS011;48641;51.676;5.808;2023-04-07T04:34:36;3.80;;;1.30;;
62582;SDS011;48641;51.676;5.808;2023-04-07T04:37:03;3.55;;;1.35;;
62582;SDS011;48641;51.676;5.808;2023-04-07T04:39:28;2.80;;;1.30;;
62582;SDS011;48641;51.676;5.808;2023-04-07T04:41:54;3.85;;;1.17;;
62582;SDS011;48641;51.676;5.808;2023-04-07T04:44:20;2.90;;;1.38;;
62582;SDS011;48641;51.676;5.808;2023-04-07T04:46:46;3.30;;;1.30;;
62582;SDS011;48641;51.676;5.808;2023-04-07T04:49:12;3.63;;;1.33;;
62582;SDS011;48641;51.676;5.808;2023-04-07T04:51:39;2.72;;;1.20;;
62582;SDS011;48641;51.676;5.808;2023-04-07T04:54:05;2.67;;;1.17;;
62582;SDS011;48641;51.676;5.808;2023-04-07T04:56:31;3.35;;;1.35;;
62582;SDS011;48641;51.676;5.808;2023-04-07T04:58:57;3.38;;;1.25;;
62582;SDS011;48641;51.676;5.808;2023-04-07T05:01:23;5.07;;;1.50;;
62582;SDS011;48641;51.676;5.808;2023-04-07T05:03:48;3.10;;;1.20;;
62582;SDS011;48641;51.676;5.808;2023-04-07T05:06:14;4.10;;;1.45;;
62582;SDS011;48641;51.676;5.808;2023-04-07T05:08:40;3.05;;;1.30;;
62582;SDS011;48641;51.676;5.808;2023-04-07T05:11:05;3.55;;;1.30;;
62582;SDS011;48641;51.676;5.808;2023-04-07T05:13:31;3.20;;;1.30;;
62582;SDS011;48641;51.676;5.808;2023-04-07T05:15:56;3.40;;;1.40;;
62582;SDS011;48641;51.676;5.808;2023-04-07T05:18:22;3.97;;;1.30;;
62582;SDS011;48641;51.676;5.808;2023-04-07T05:20:47;2.90;;;1.00;;
62582;SDS011;48641;51.676;5.808;2023-04-07T05:23:13;4.18;;;1.27;;
62582;SDS011;48641;51.676;5.808;2023-04-07T05:25:39;2.65;;;1.10;;
62582;SDS011;48641;51.676;5.808;2023-04-07T05:28:05;3.67;;;1.27;;
62582;SDS011;48641;51.676;5.808;2023-04-07T05:30:30;2.33;;;1.30;;
62582;SDS011;48641;51.676;5.808;2023-04-07T05:32:56;2.65;;;1.13;;
62582;SDS011;48641;51.676;5.808;2023-04-07T05:35:22;2.63;;;1.00;;
62582;SDS011;48641;51.676;5.808;2023-04-07T05:37:48;2.85;;;1.20;;
62582;SDS011;48641;51.676;5.808;2023-04-07T05:40:13;2.03;;;1.15;;
62582;SDS011;48641;51.676;5.808;2023-04-07T05:42:39;3.40;;;1.00;;
62582;SDS011;48641;51.676;5.808;2023-04-07T05:45:05;2.00;;;1.00;;
62582;SDS011;48641;51.676;5.808;2023-04-07T05:47:32;3.63;;;1.20;;
62582;SDS011;48641;51.676;5.808;2023-04-07T05:49:57;3.10;;;1.40;;
62582;SDS011;48641;51.676;5.808;2023-04-07T05:52:23;2.20;;;1.00;;
62582;SDS011;48641;51.676;5.808;2023-04-07T05:54:48;1.98;;;1.05;;
62582;SDS011;48641;51.676;5.808;2023-04-07T05:57:14;3.38;;;1.17;;
62582;SDS011;48641;51.676;5.808;2023-04-07T05:59:40;2.35;;;1.13;;
62582;SDS011;48641;51.676;5.808;2023-04-07T06:02:06;2.92;;;1.13;;
62582;SDS011;48641;51.676;5.808;2023-04-07T06:04:31;4.85;;;1.33;;
62582;SDS011;48641;51.676;5.808;2023-04-07T06:06:59;3.33;;;1.23;;
62582;SDS011;48641;51.676;5.808;2023-04-07T06:09:28;3.75;;;1.17;;
62582;SDS011;48641;51.676;5.808;2023-04-07T06:11:53;2.83;;;1.10;;
62582;SDS011;48641;51.676;5.808;2023-04-07T06:14:19;2.17;;;1.10;;
62582;SDS011;48641;51.676;5.808;2023-04-07T06:16:44;7.07;;;1.80;;
62582;SDS011;48641;51.676;5.808;2023-04-07T06:19:10;3.88;;;1.13;;
62582;SDS011;48641;51.676;5.808;2023-04-07T06:21:35;2.72;;;1.00;;
62582;SDS011;48641;51.676;5.808;2023-04-07T06:24:01;3.55;;;1.40;;
62582;SDS011;48641;51.676;5.808;2023-04-07T06:26:27;5.78;;;1.23;;
62582;SDS011;48641;51.676;5.808;2023-04-07T06:28:52;3.72;;;1.65;;
62582;SDS011;48641;51.676;5.808;2023-04-07T06:31:18;3.38;;;1.15;;
62582;SDS011;48641;51.676;5.808;2023-04-07T06:33:44;5.47;;;1.50;;
62582;SDS011;48641;51.676;5.808;2023-04-07T06:36:10;2.58;;;1.08;;
62582;SDS011;48641;51.676;5.808;2023-04-07T06:38:36;4.22;;;1.08;;
62582;SDS011;48641;51.676;5.808;2023-04-07T06:41:02;2.63;;;1.13;;
62582;SDS011;48641;51.676;5.808;2023-04-07T06:43:29;5.45;;;1.10;;
62582;SDS011;48641;51.676;5.808;2023-04-07T06:45:55;6.88;;;1.30;;
62582;SDS011;48641;51.676;5.808;2023-04-07T06:48:21;4.75;;;1.35;;
62582;SDS011;48641;51.676;5.808;2023-04-07T06:50:50;3.65;;;1.23;;
62582;SDS011;48641;51.676;5.808;2023-04-07T06:53:16;2.85;;;1.05;;
62582;SDS011;48641;51.676;5.808;2023-04-07T06:55:42;6.93;;;1.30;;
62582;SDS011;48641;51.676;5.808;2023-04-07T06:58:07;3.28;;;1.15;;
62582;SDS011;48641;51.676;5.808;2023-04-07T07:00:33;4.97;;;1.27;;
62582;SDS011;48641;51.676;5.808;2023-04-07T07:03:00;5.90;;;1.20;;
62582;SDS011;48641;51.676;5.808;2023-04-07T07:05:25;2.30;;;1.08;;
62582;SDS011;48641;51.676;5.808;2023-04-07T07:07:51;3.45;;;1.10;;
62582;SDS011;48641;51.676;5.808;2023-04-07T07:10:17;3.28;;;1.08;;
62582;SDS011;48641;51.676;5.808;2023-04-07T07:12:44;2.72;;;1.10;;
62582;SDS011;48641;51.676;5.808;2023-04-07T07:15:10;3.83;;;1.20;;
62582;SDS011;48641;51.676;5.808;2023-04-07T07:17:35;2.30;;;0.98;;
62582;SDS011;48641;51.676;5.808;2023-04-07T07:20:01;2.97;;;1.15;;
62582;SDS011;48641;51.676;5.808;2023-04-07T07:22:27;3.55;;;1.38;;
62582;SDS011;48641;51.676;5.808;2023-04-07T07:24:52;3.83;;;1.10;;
62582;SDS011;48641;51.676;5.808;2023-04-07T07:27:18;4.35;;;1.38;;
62582;SDS011;48641;51.676;5.808;2023-04-07T07:29:43;4.50;;;1.17;;
62582;SDS011;48641;51.676;5.808;2023-04-07T07:32:09;3.47;;;1.35;;
62582;SDS011;48641;51.676;5.808;2023-04-07T07:34:34;2.88;;;0.90;;
62582;SDS011;48641;51.676;5.808;2023-04-07T07:37:00;3.13;;;1.13;;
62582;SDS011;48641;51.676;5.808;2023-04-07T07:39:26;4.43;;;1.10;;
62582;SDS011;48641;51.676;5.808;2023-04-07T07:41:52;3.95;;;0.95;;
62582;SDS011;48641;51.676;5.808;2023-04-07T07:44:18;2.78;;;1.10;;
62582;SDS011;48641;51.676;5.808;2023-04-07T07:46:44;3.78;;;1.02;;
62582;SDS011;48641;51.676;5.808;2023-04-07T07:49:10;3.60;;;1.10;;
62582;SDS011;48641;51.676;5.808;2023-04-07T07:51:35;4.63;;;1.13;;
62582;SDS011;48641;51.676;5.808;2023-04-07T07:54:01;4.75;;;1.48;;
62582;SDS011;48641;51.676;5.808;2023-04-07T07:56:27;4.40;;;1.48;;
62582;SDS011;48641;51.676;5.808;2023-04-07T07:58:52;5.60;;;1.10;;
62582;SDS011;48641;51.676;5.808;2023-04-07T08:01:18;4.90;;;1.30;;
62582;SDS011;48641;51.676;5.808;2023-04-07T08:03:44;3.95;;;1.30;;
62582;SDS011;48641;51.676;5.808;2023-04-07T08:06:11;4.97;;;1.20;;
62582;SDS011;48641;51.676;5.808;2023-04-07T08:08:37;2.28;;;1.10;;
62582;SDS011;48641;51.676;5.808;2023-04-07T08:11:02;4.88;;;1.13;;
62582;SDS011;48641;51.676;5.808;2023-04-07T08:13:28;7.63;;;1.73;;
62582;SDS011;48641;51.676;5.808;2023-04-07T08:15:53;5.50;;;1.40;;
62582;SDS011;48641;51.676;5.808;2023-04-07T08:18:19;4.25;;;1.20;;
62582;SDS011;48641;51.676;5.808;2023-04-07T08:20:45;8.07;;;1.80;;
62582;SDS011;48641;51.676;5.808;2023-04-07T08:23:10;6.40;;;1.75;;
62582;SDS011;48641;51.676;5.808;2023-04-07T08:25:36;6.35;;;1.83;;
62582;SDS011;48641;51.676;5.808;2023-04-07T08:28:04;3.78;;;1.10;;
62582;SDS011;48641;51.676;5.808;2023-04-07T08:30:30;5.40;;;2.30;;
62582;SDS011;48641;51.676;5.808;2023-04-07T08:32:56;8.23;;;2.50;;
62582;SDS011;48641;51.676;5.808;2023-04-07T08:35:21;10.55;;;3.00;;
62582;SDS011;48641;51.676;5.808;2023-04-07T08:37:47;7.18;;;2.33;;
62582;SDS011;48641;51.676;5.808;2023-04-07T08:40:14;6.53;;;2.22;;
62582;SDS011;48641;51.676;5.808;2023-04-07T08:42:41;6.65;;;2.17;;
62582;SDS011;48641;51.676;5.808;2023-04-07T08:45:08;7.28;;;2.22;;
62582;SDS011;48641;51.676;5.808;2023-04-07T08:47:34;7.28;;;2.17;;
62582;SDS011;48641;51.676;5.808;2023-04-07T08:50:05;8.55;;;2.22;;
62582;SDS011;48641;51.676;5.808;2023-04-07T08:52:34;10.30;;;2.85;;
62582;SDS011;48641;51.676;5.808;2023-04-07T08:55:08;6.57;;;2.60;;
62582;SDS011;48641;51.676;5.808;2023-04-07T08:57:34;13.13;;;3.20;;
62582;SDS011;48641;51.676;5.808;2023-04-07T09:00:01;7.88;;;2.75;;
62582;SDS011;48641;51.676;5.808;2023-04-07T09:02:30;10.40;;;2.70;;
62582;SDS011;48641;51.676;5.808;2023-04-07T09:04:58;8.67;;;2.73;;
62582;SDS011;48641;51.676;5.808;2023-04-07T09:07:24;9.30;;;3.10;;
62582;SDS011;48641;51.676;5.808;2023-04-07T09:09:49;10.45;;;2.90;;
62582;SDS011;48641;51.676;5.808;2023-04-07T09:12:15;9.40;;;2.90;;
62582;SDS011;48641;51.676;5.808;2023-04-07T09:14:41;6.25;;;2.30;;
62582;SDS011;48641;51.676;5.808;2023-04-07T09:17:06;7.70;;;2.60;;
62582;SDS011;48641;51.676;5.808;2023-04-07T09:19:32;7.93;;;2.38;;
62582;SDS011;48641;51.676;5.808;2023-04-07T09:21:58;7.38;;;2.80;;
62582;SDS011;48641;51.676;5.808;2023-04-07T09:24:25;7.28;;;2.45;;
62582;SDS011;48641;51.676;5.808;2023-04-07T09:27:10;6.70;;;2.50;;
62582;SDS011;48641;51.676;5.808;2023-04-07T09:29:36;7.38;;;2.40;;
62582;SDS011;48641;51.676;5.808;2023-04-07T09:32:02;7.22;;;3.00;;
62582;SDS011;48641;51.676;5.808;2023-04-07T09:34:30;9.55;;;2.80;;
62582;SDS011;48641;51.676;5.808;2023-04-07T09:36:57;7.15;;;2.70;;
62582;SDS011;48641;51.676;5.808;2023-04-07T09:39:23;10.50;;;3.33;;
62582;SDS011;48641;51.676;5.808;2023-04-07T09:41:50;7.97;;;2.40;;
62582;SDS011;48641;51.676;5.808;2023-04-07T09:44:19;8.85;;;2.50;;
62582;SDS011;48641;51.676;5.808;2023-04-07T09:46:50;8.27;;;3.08;;
62582;SDS011;48641;51.676;5.808;2023-04-07T09:49:20;8.82;;;2.70;;
62582;SDS011;48641;51.676;5.808;2023-04-07T09:51:52;7.10;;;2.58;;
62582;SDS011;48641;51.676;5.808;2023-04-07T09:54:30;7.20;;;3.05;;
62582;SDS011;48641;51.676;5.808;2023-04-07T09:56:57;7.63;;;2.40;;
62582;SDS011;48641;51.676;5.808;2023-04-07T09:59:25;6.72;;;2.67;;
62582;SDS011;48641;51.676;5.808;2023-04-07T10:01:53;10.25;;;4.75;;
62582;SDS011;48641;51.676;5.808;2023-04-07T10:04:19;10.60;;;3.63;;
62582;SDS011;48641;51.676;5.808;2023-04-07T10:06:46;6.30;;;2.95;;
62582;SDS011;48641;51.676;5.808;2023-04-07T10:09:12;10.32;;;2.90;;
62582;SDS011;48641;51.676;5.808;2023-04-07T10:11:39;9.50;;;3.05;;
62582;SDS011;48641;51.676;5.808;2023-04-07T10:14:06;7.32;;;3.08;;
62582;SDS011;48641;51.676;5.808;2023-04-07T10:16:34;6.88;;;2.90;;
62582;SDS011;48641;51.676;5.808;2023-04-07T10:19:06;6.25;;;2.90;;
62582;SDS011;48641;51.676;5.808;2023-04-07T10:21:37;6.90;;;2.83;;
62582;SDS011;48641;51.676;5.808;2023-04-07T10:26:50;9.95;;;3.20;;
62582;SDS011;48641;51.676;5.808;2023-04-07T10:31:44;7.50;;;2.92;;
62582;SDS011;48641;51.676;5.808;2023-04-07T10:34:11;7.25;;;2.72;;
62582;SDS011;48641;51.676;5.808;2023-04-07T10:37:06;6.93;;;3.08;;
62582;SDS011;48641;51.676;5.808;2023-04-07T10:39:45;7.00;;;3.05;;
62582;SDS011;48641;51.676;5.808;2023-04-07T10:45:05;7.50;;;2.88;;
62582;SDS011;48641;51.676;5.808;2023-04-07T10:47:32;8.07;;;2.97;;
62582;SDS011;48641;51.676;5.808;2023-04-07T10:52:48;8.38;;;3.80;;
62582;SDS011;48641;51.676;5.808;2023-04-07T10:58:14;9.02;;;3.50;;
62582;SDS011;48641;51.676;5.808;2023-04-07T11:03:25;7.22;;;2.72;;
62582;SDS011;48641;51.676;5.808;2023-04-07T11:05:52;7.68;;;2.58;;
62582;SDS011;48641;51.676;5.808;2023-04-07T11:08:34;7.00;;;2.88;;
62582;SDS011;48641;51.676;5.808;2023-04-07T11:11:04;6.53;;;2.65;;
62582;SDS011;48641;51.676;5.808;2023-04-07T11:16:06;5.88;;;2.45;;
62582;SDS011;48641;51.676;5.808;2023-04-07T11:18:32;6.38;;;2.65;;
62582;SDS011;48641;51.676;5.808;2023-04-07T11:20:59;6.60;;;2.78;;
62582;SDS011;48641;51.676;5.808;2023-04-07T11:23:27;6.20;;;2.63;;
62582;SDS011;48641;51.676;5.808;2023-04-07T11:26:00;6.80;;;2.70;;
62582;SDS011;48641;51.676;5.808;2023-04-07T11:28:26;8.13;;;3.10;;
62582;SDS011;48641;51.676;5.808;2023-04-07T11:30:53;6.97;;;2.67;;
62582;SDS011;48641;51.676;5.808;2023-04-07T11:33:20;6.85;;;2.63;;
62582;SDS011;48641;51.676;5.808;2023-04-07T11:35:55;8.77;;;2.65;;
62582;SDS011;48641;51.676;5.808;2023-04-07T11:38:21;7.70;;;2.88;;
62582;SDS011;48641;51.676;5.808;2023-04-07T11:40:51;7.28;;;2.70;;
62582;SDS011;48641;51.676;5.808;2023-04-07T11:43:22;7.72;;;2.85;;
62582;SDS011;48641;51.676;5.808;2023-04-07T11:48:39;7.32;;;2.83;;
62582;SDS011;48641;51.676;5.808;2023-04-07T11:51:06;7.57;;;2.83;;
62582;SDS011;48641;51.676;5.808;2023-04-07T11:53:43;7.50;;;3.00;;
62582;SDS011;48641;51.676;5.808;2023-04-07T11:56:12;7.55;;;3.03;;
62582;SDS011;48641;51.676;5.808;2023-04-07T11:58:49;10.25;;;2.75;;
62582;SDS011;48641;51.676;5.808;2023-04-07T12:01:16;7.57;;;2.70;;
62582;SDS011;48641;51.676;5.808;2023-04-07T12:04:00;8.07;;;2.83;;
62582;SDS011;48641;51.676;5.808;2023-04-07T12:08:55;6.28;;;2.33;;
62582;SDS011;48641;51.676;5.808;2023-04-07T12:11:21;6.68;;;2.80;;
62582;SDS011;48641;51.676;5.808;2023-04-07T12:13:46;9.55;;;3.22;;
62582;SDS011;48641;51.676;5.808;2023-04-07T12:16:12;7.43;;;2.95;;
62582;SDS011;48641;51.676;5.808;2023-04-07T12:18:38;7.07;;;2.60;;
62582;SDS011;48641;51.676;5.808;2023-04-07T12:21:03;7.53;;;2.80;;
62582;SDS011;48641;51.676;5.808;2023-04-07T12:23:29;7.13;;;2.70;;
62582;SDS011;48641;51.676;5.808;2023-04-07T12:25:55;6.10;;;2.30;;
62582;SDS011;48641;51.676;5.808;2023-04-07T12:28:20;8.23;;;2.75;;
62582;SDS011;48641;51.676;5.808;2023-04-07T12:30:46;7.65;;;2.67;;
62582;SDS011;48641;51.676;5.808;2023-04-07T12:33:11;7.10;;;2.80;;
62582;SDS011;48641;51.676;5.808;2023-04-07T12:35:37;6.32;;;2.45;;
62582;SDS011;48641;51.676;5.808;2023-04-07T12:38:03;7.55;;;3.10;;
62582;SDS011;48641;51.676;5.808;2023-04-07T12:40:29;7.13;;;2.80;;
62582;SDS011;48641;51.676;5.808;2023-04-07T12:42:55;7.32;;;2.83;;
62582;SDS011;48641;51.676;5.808;2023-04-07T12:45:24;6.43;;;2.55;;
62582;SDS011;48641;51.676;5.808;2023-04-07T12:47:50;9.50;;;2.72;;
62582;SDS011;48641;51.676;5.808;2023-04-07T12:50:15;7.45;;;2.67;;
62582;SDS011;48641;51.676;5.808;2023-04-07T12:52:41;8.52;;;3.00;;
62582;SDS011;48641;51.676;5.808;2023-04-07T12:55:07;7.40;;;2.83;;
62582;SDS011;48641;51.676;5.808;2023-04-07T12:57:32;7.15;;;2.88;;
62582;SDS011;48641;51.676;5.808;2023-04-07T12:59:58;8.05;;;2.53;;
62582;SDS011;48641;51.676;5.808;2023-04-07T13:02:24;5.57;;;2.72;;
62582;SDS011;48641;51.676;5.808;2023-04-07T13:04:50;5.97;;;2.60;;
62582;SDS011;48641;51.676;5.808;2023-04-07T13:07:16;8.68;;;2.78;;
62582;SDS011;48641;51.676;5.808;2023-04-07T13:09:41;6.85;;;2.67;;
62582;SDS011;48641;51.676;5.808;2023-04-07T13:12:08;6.10;;;2.78;;
62582;SDS011;48641;51.676;5.808;2023-04-07T13:14:35;6.43;;;3.05;;
62582;SDS011;48641;51.676;5.808;2023-04-07T13:17:01;5.60;;;2.33;;
62582;SDS011;48641;51.676;5.808;2023-04-07T13:19:27;6.32;;;2.60;;
62582;SDS011;48641;51.676;5.808;2023-04-07T13:21:53;8.27;;;2.70;;
62582;SDS011;48641;51.676;5.808;2023-04-07T13:24:19;7.45;;;2.75;;
62582;SDS011;48641;51.676;5.808;2023-04-07T13:26:45;5.85;;;2.53;;
62582;SDS011;48641;51.676;5.808;2023-04-07T13:29:11;5.90;;;2.65;;
62582;SDS011;48641;51.676;5.808;2023-04-07T13:31:37;7.72;;;2.88;;
62582;SDS011;48641;51.676;5.808;2023-04-07T13:34:03;5.15;;;2.42;;
62582;SDS011;48641;51.676;5.808;2023-04-07T13:36:28;6.28;;;2.78;;
62582;SDS011;48641;51.676;5.808;2023-04-07T13:38:54;6.43;;;2.90;;
62582;SDS011;48641;51.676;5.808;2023-04-07T13:41:20;6.13;;;2.60;;
62582;SDS011;48641;51.676;5.808;2023-04-07T13:43:46;5.90;;;2.60;;
62582;SDS011;48641;51.676;5.808;2023-04-07T13:46:12;7.28;;;2.83;;
62582;SDS011;48641;51.676;5.808;2023-04-07T14:37:53;6.50;;;3.03;;
62582;SDS011;48641;51.676;5.808;2023-04-07T14:40:19;5.80;;;3.40;;
62582;SDS011;48641;51.676;5.808;2023-04-07T14:42:45;6.10;;;2.95;;
62582;SDS011;48641;51.676;5.808;2023-04-07T14:45:10;7.32;;;3.42;;
62582;SDS011;48641;51.676;5.808;2023-04-07T14:47:36;5.78;;;2.92;;
62582;SDS011;48641;51.676;5.808;2023-04-07T14:50:02;7.45;;;3.10;;
62582;SDS011;48641;51.676;5.808;2023-04-07T14:52:28;5.65;;;3.05;;
62582;SDS011;48641;51.676;5.808;2023-04-07T14:54:53;7.32;;;3.15;;
62582;SDS011;48641;51.676;5.808;2023-04-07T14:57:19;6.85;;;3.17;;
62582;SDS011;48641;51.676;5.808;2023-04-07T14:59:46;6.97;;;2.92;;
62582;SDS011;48641;51.676;5.808;2023-04-07T15:02:11;7.85;;;3.28;;
62582;SDS011;48641;51.676;5.808;2023-04-07T15:04:37;6.32;;;3.03;;
62582;SDS011;48641;51.676;5.808;2023-04-07T15:07:02;9.38;;;3.80;;
62582;SDS011;48641;51.676;5.808;2023-04-07T15:09:29;8.63;;;3.20;;
62582;SDS011;48641;51.676;5.808;2023-04-07T15:11:55;8.27;;;3.45;;
62582;SDS011;48641;51.676;5.808;2023-04-07T15:14:20;7.72;;;3.13;;
62582;SDS011;48641;51.676;5.808;2023-04-07T15:16:46;10.50;;;3.53;;
62582;SDS011;48641;51.676;5.808;2023-04-07T15:19:14;8.02;;;3.40;;
62582;SDS011;48641;51.676;5.808;2023-04-07T15:21:40;6.05;;;3.13;;
62582;SDS011;48641;51.676;5.808;2023-04-07T15:24:06;8.60;;;3.60;;
62582;SDS011;48641;51.676;5.808;2023-04-07T15:26:31;8.68;;;3.55;;
62582;SDS011;48641;51.676;5.808;2023-04-07T15:28:57;8.68;;;3.42;;
62582;SDS011;48641;51.676;5.808;2023-04-07T15:31:22;9.10;;;3.25;;
62582;SDS011;48641;51.676;5.808;2023-04-07T15:33:50;11.03;;;4.07;;
62582;SDS011;48641;51.676;5.808;2023-04-07T15:36:17;9.25;;;3.38;;
62582;SDS011;48641;51.676;5.808;2023-04-07T15:38:42;6.97;;;3.10;;
62582;SDS011;48641;51.676;5.808;2023-04-07T15:41:08;8.45;;;3.10;;
62582;SDS011;48641;51.676;5.808;2023-04-07T15:43:34;8.20;;;3.60;;
62582;SDS011;48641;51.676;5.808;2023-04-07T15:46:00;7.05;;;3.17;;
62582;SDS011;48641;51.676;5.808;2023-04-07T15:48:26;6.63;;;3.15;;
62582;SDS011;48641;51.676;5.808;2023-04-07T15:50:52;9.15;;;3.50;;
62582;SDS011;48641;51.676;5.808;2023-04-07T15:53:18;8.45;;;3.33;;
62582;SDS011;48641;51.676;5.808;2023-04-07T15:55:43;12.30;;;5.00;;
62582;SDS011;48641;51.676;5.808;2023-04-07T15:58:09;8.60;;;4.30;;
62582;SDS011;48641;51.676;5.808;2023-04-07T16:00:35;11.27;;;3.90;;
62582;SDS011;48641;51.676;5.808;2023-04-07T16:03:02;7.63;;;3.33;;